aviador You're here:

ZSSS Decoded Metar

SHANGHAI in CHINA
Report Time2017-06-23 22:00:00
UTC Time2017-06-23 22:33:18
Flight Rules ifr IFR
Wind110° at 4 kt
W.Decomp.*RWY 18: 1.7 kt HW 3.6 kt LCW
W.Rank110° ranks 6
Current wind is below 110° avg. (7.7)
Visibility7000 m
Phenomena:N/A
Clouds:Broken 007 Hf
Expected CloudBase > 400 ft AGL from Temp-Dew spread
Ceiling700 ft
Temp23°C (ISA +8)
Dew Point22°C (94% RH)
QNH1002 hPa
Density Alt1,680 ft
Elevation23 ft
Report Wrong Elevation
Raw Report
METAR ZSSS 232200Z 11002MPS 7000 BKN007 23/22 Q1002 NOSIG=

Extra information for ZSSS:More info

Metar Taf Metar & Taf Last 4 Metars F.Rules Stats Wind Profile Meteogram Temp Stats Airport Information Weather charts Add Link Nearby VenuesMetar ALERT Operation Metar Decoded Social comments